Terminal Aerodrome Forecast
Issued by NWS

Home | Current Version | Previous Version | Graphics & Text | Print | Product List | Glossary On
Versions: 1 2 3 4 5 6 7 8 9 10 11 12
929
FTUS45 KGGW 241730
TAFSDY
TAF
KSDY 241730Z 2418/2518 34013KT P6SM FEW080
     FM250200 36007KT P6SM FEW100=

USA.gov is the U.S. government's official web portal to all federal, state and local government web resources and services.